Time;durP1;ratioP1;P1;durP2;ratioP2;P2;SDS_P1;SDS_P2;PMS_P1;PMS_P2;Temp;Humidity;BMP_temperature;BMP_pressure;BME280_temperature;BME280_humidity;BME280_pressure;Samples;Min_cycle;Max_cycle;Signal;HPM_P1;HPM_P2
2021/11/03 00:01:15;;;;;;;25.40;15.17;;;8.10;83.10;;;;;;5100109;28;20225;-81
2021/11/03 00:03:42;;;;;;;23.40;14.23;;;8.10;82.60;;;;;;5099579;28;20438;-82
2021/11/03 00:06:09;;;;;;;21.60;14.00;;;8.00;82.60;;;;;;5100445;28;20182;-81
2021/11/03 00:08:35;;;;;;;17.45;13.82;;;8.10;82.70;;;;;;5101049;28;20206;-81
2021/11/03 00:11:03;;;;;;;22.50;14.40;;;8.10;82.20;;;;;;5100430;28;20254;-81
2021/11/03 00:13:29;;;;;;;24.33;14.60;;;7.80;82.20;;;;;;5113837;28;20210;-81
2021/11/03 00:15:57;;;;;;;19.80;13.30;;;7.80;82.60;;;;;;5120309;28;20225;-81
2021/11/03 00:18:23;;;;;;;20.52;13.90;;;7.60;82.90;;;;;;5120020;28;20167;-82
2021/11/03 00:20:49;;;;;;;28.17;15.00;;;7.40;83.40;;;;;;5120664;28;20187;-81
2021/11/03 00:23:15;;;;;;;25.70;15.48;;;7.40;83.80;;;;;;5121261;28;20171;-81
2021/11/03 00:25:45;;;;;;;33.70;16.00;;;7.30;84.20;;;;;;5122007;28;20176;-81
2021/11/03 00:28:12;;;;;;;25.83;17.45;;;7.10;84.50;;;;;;5121392;28;20175;-81
2021/11/03 00:30:39;;;;;;;29.15;16.63;;;7.40;84.70;;;;;;5121958;28;20171;-81
2021/11/03 00:33:05;;;;;;;35.35;19.40;;;7.50;84.00;;;;;;5119997;28;20175;-82
2021/11/03 00:35:32;;;;;;;25.75;15.68;;;7.50;83.60;;;;;;5107863;28;20278;-82
2021/11/03 00:37:58;;;;;;;24.23;16.15;;;7.30;83.60;;;;;;5098043;28;20725;-82
2021/11/03 00:40:24;;;;;;;28.10;14.60;;;7.30;83.90;;;;;;5099570;28;20247;-81
2021/11/03 00:42:50;;;;;;;24.80;15.63;;;7.10;84.20;;;;;;5098205;28;20692;-82
2021/11/03 00:45:17;;;;;;;29.55;18.35;;;7.20;84.50;;;;;;5098291;28;20194;-81
2021/11/03 00:47:43;;;;;;;24.70;15.30;;;7.20;84.60;;;;;;5097811;28;20202;-82
2021/11/03 00:50:08;;;;;;;24.60;14.63;;;7.30;84.70;;;;;;5100442;28;20643;-81
2021/11/03 00:52:34;;;;;;;25.23;15.33;;;7.40;84.60;;;;;;5099146;28;20479;-82
2021/11/03 00:55:00;;;;;;;21.67;14.18;;;7.50;84.50;;;;;;5098397;28;20227;-82
2021/11/03 00:57:26;;;;;;;28.00;14.23;;;7.60;84.00;;;;;;5100034;28;20196;-81
2021/11/03 00:59:51;;;;;;;31.60;16.47;;;7.50;83.70;;;;;;5099183;28;20406;-81
2021/11/03 01:02:17;;;;;;;22.33;15.00;;;7.40;83.50;;;;;;5099838;28;20172;-81
2021/11/03 01:04:44;;;;;;;20.20;15.63;;;7.30;83.70;;;;;;5100179;28;20675;-81
2021/11/03 01:07:10;;;;;;;20.02;14.95;;;7.20;83.90;;;;;;5099028;28;20243;-81
2021/11/03 01:09:36;;;;;;;29.27;14.80;;;7.10;84.30;;;;;;5098438;28;20245;-81
2021/11/03 01:12:02;;;;;;;23.23;14.90;;;7.20;84.40;;;;;;5101270;28;20199;-82
2021/11/03 01:14:28;;;;;;;24.08;15.07;;;7.30;84.40;;;;;;5118096;28;20702;-82
2021/11/03 01:16:53;;;;;;;24.57;15.33;;;7.20;84.30;;;;;;5117733;28;20294;-82
2021/11/03 01:19:19;;;;;;;27.77;16.50;;;7.00;84.30;;;;;;5117927;28;20527;-82
2021/11/03 01:21:45;;;;;;;24.73;16.47;;;6.80;84.70;;;;;;5117625;28;20178;-82
2021/11/03 01:24:11;;;;;;;26.73;16.20;;;6.80;85.00;;;;;;5117847;28;20555;-81
2021/11/03 01:26:37;;;;;;;26.92;16.67;;;6.90;85.20;;;;;;5118497;28;20171;-81
2021/11/03 01:29:04;;;;;;;25.60;15.60;;;7.10;85.20;;;;;;5118046;28;20190;-82
2021/11/03 01:31:30;;;;;;;25.65;16.15;;;7.10;85.20;;;;;;5118393;28;20187;-82
2021/11/03 01:33:56;;;;;;;27.55;16.65;;;7.30;84.90;;;;;;5118828;28;20199;-82
2021/11/03 01:36:23;;;;;;;24.60;17.00;;;7.20;84.40;;;;;;5102816;28;20203;-81
2021/11/03 01:38:49;;;;;;;25.63;16.40;;;7.00;84.40;;;;;;5098654;28;20908;-82
2021/11/03 01:41:16;;;;;;;25.27;16.63;;;6.90;84.70;;;;;;5081796;28;20186;-82
2021/11/03 01:43:50;;;;;;;32.40;18.20;;;6.80;84.70;;;;;;5098349;28;20528;-82
2021/11/03 01:46:22;;;;;;;31.02;18.45;;;6.70;85.20;;;;;;5098768;28;20178;-82
2021/11/03 01:48:49;;;;;;;31.65;19.52;;;6.70;85.30;;;;;;5099583;28;20167;-81
2021/11/03 01:51:27;;;;;;;34.97;19.67;;;6.60;85.50;;;;;;5099917;28;20176;-82
2021/11/03 01:53:53;;;;;;;27.80;17.80;;;6.80;85.50;;;;;;5099013;28;20192;-82
2021/11/03 01:56:19;;;;;;;32.80;19.87;;;6.70;85.60;;;;;;5099447;28;20200;-82
2021/11/03 01:58:57;;;;;;;35.23;20.00;;;6.80;85.60;;;;;;5101086;28;20417;-82
2021/11/03 02:01:24;;;;;;;31.42;16.88;;;7.00;85.40;;;;;;5100629;28;20434;-82
2021/11/03 02:03:50;;;;;;;28.00;17.98;;;7.10;84.90;;;;;;5100596;28;20191;-82
2021/11/03 02:06:19;;;;;;;29.33;19.52;;;7.20;84.40;;;;;;5099793;28;20209;-82
2021/11/03 02:08:47;;;;;;;25.77;17.13;;;7.20;84.10;;;;;;5098472;28;20241;-82
2021/11/03 02:11:14;;;;;;;28.88;17.90;;;7.20;84.00;;;;;;5097586;28;20626;-83
2021/11/03 02:13:41;;;;;;;34.22;17.70;;;7.00;83.80;;;;;;5114128;28;20263;-83
2021/11/03 02:16:12;;;;;;;27.60;17.38;;;6.60;84.20;;;;;;5119614;28;20199;-83
2021/11/03 02:18:39;;;;;;;28.80;17.88;;;6.60;84.70;;;;;;5118940;28;20182;-82
2021/11/03 02:21:07;;;;;;;24.70;17.30;;;6.90;84.90;;;;;;5118497;28;20181;-82
2021/11/03 02:23:55;;;;;;;30.20;18.52;;;6.90;84.60;;;;;;5117156;28;20203;-82
2021/11/03 02:26:26;;;;;;;26.13;17.42;;;7.00;84.40;;;;;;5118196;28;20599;-82
2021/11/03 02:28:52;;;;;;;27.45;17.52;;;7.00;84.20;;;;;;5118576;28;20269;-82
2021/11/03 02:31:35;;;;;;;31.73;18.45;;;7.00;84.90;;;;;;5117718;28;20210;-82
2021/11/03 02:34:03;;;;;;;30.15;19.80;;;7.00;84.20;;;;;;5116943;28;20191;-82
2021/11/03 02:36:28;;;;;;;31.60;20.13;;;7.10;84.20;;;;;;5116490;28;20203;-82
2021/11/03 02:38:54;;;;;;;29.27;20.00;;;7.00;84.30;;;;;;5120105;28;20534;-82
2021/11/03 02:41:23;;;;;;;34.28;19.23;;;7.10;84.40;;;;;;5122690;28;20175;-82
2021/11/03 02:44:01;;;;;;;39.25;20.38;;;7.10;84.30;;;;;;5122201;28;20199;-82
2021/11/03 02:46:28;;;;;;;37.50;19.80;;;7.10;84.30;;;;;;5124174;28;20284;-82
2021/11/03 02:48:54;;;;;;;29.95;19.00;;;7.10;85.00;;;;;;5124735;28;20205;-82
2021/11/03 02:51:36;;;;;;;39.00;20.27;;;7.00;84.20;;;;;;5128342;28;20168;-82
2021/11/03 02:54:09;;;;;;;33.00;20.30;;;7.20;84.20;;;;;;5123492;28;20433;-82
2021/11/03 02:56:39;;;;;;;35.28;18.73;;;7.30;83.70;;;;;;5124410;28;20203;-81
2021/11/03 02:59:06;;;;;;;33.47;20.33;;;7.30;83.00;;;;;;5123630;28;20188;-82
2021/11/03 03:01:42;;;;;;;30.05;18.30;;;7.20;83.00;;;;;;5123565;28;20544;-82
2021/11/03 03:04:36;;;;;;;26.83;18.80;;;7.20;83.00;;;;;;5120473;28;20705;-82
2021/11/03 03:07:03;;;;;;;26.05;17.13;;;7.30;82.90;;;;;;5110663;28;20195;-82
2021/11/03 03:09:30;;;;;;;33.40;20.00;;;7.20;82.90;;;;;;5125289;28;20235;-81
2021/11/03 03:12:00;;;;;;;31.52;19.48;;;7.00;83.10;;;;;;5124116;28;20191;-81
2021/11/03 03:14:30;;;;;;;27.65;18.58;;;6.80;83.50;;;;;;5123274;28;20707;-81
2021/11/03 03:16:56;;;;;;;29.33;18.02;;;6.60;84.00;;;;;;5124698;28;20210;-82
2021/11/03 03:19:22;;;;;;;34.57;20.17;;;6.60;84.40;;;;;;5126158;28;20171;-82
2021/11/03 03:21:48;;;;;;;36.50;20.33;;;6.70;84.80;;;;;;5125540;28;20417;-82
2021/11/03 03:24:15;;;;;;;31.50;18.92;;;6.70;84.90;;;;;;5127474;28;20666;-82
2021/11/03 03:26:42;;;;;;;32.20;20.70;;;6.90;84.80;;;;;;5128638;28;20179;-82
2021/11/03 03:29:09;;;;;;;29.17;19.35;;;6.80;84.60;;;;;;5128406;28;20203;-82
2021/11/03 03:31:36;;;;;;;27.17;16.95;;;6.90;84.70;;;;;;5128965;28;20246;-82
2021/11/03 03:34:09;;;;;;;26.95;18.35;;;6.90;84.60;;;;;;5130719;28;20199;-82
2021/11/03 03:36:36;;;;;;;33.90;20.40;;;6.90;84.50;;;;;;5124935;28;20262;-82
2021/11/03 03:39:03;;;;;;;26.35;16.70;;;6.80;84.40;;;;;;5122361;28;20200;-81
2021/11/03 03:41:29;;;;;;;33.22;20.65;;;6.90;84.50;;;;;;5121799;28;20181;-82
2021/11/03 03:43:55;;;;;;;35.83;20.60;;;6.80;84.50;;;;;;5122596;28;20281;-81
2021/11/03 03:46:22;;;;;;;36.40;20.13;;;6.80;84.60;;;;;;5121666;28;20187;-81
2021/11/03 03:48:48;;;;;;;33.05;18.80;;;6.80;84.60;;;;;;5117620;28;20191;-81
2021/11/03 03:51:14;;;;;;;33.75;20.30;;;6.80;84.70;;;;;;5102070;28;20197;-82
2021/11/03 03:53:40;;;;;;;37.83;22.50;;;6.90;84.60;;;;;;5101836;28;20223;-82
2021/11/03 03:56:07;;;;;;;31.23;22.00;;;7.10;84.30;;;;;;5101070;28;20437;-82
2021/11/03 03:58:33;;;;;;;30.45;21.90;;;7.10;84.50;;;;;;5099884;28;20430;-82
2021/11/03 04:00:59;;;;;;;34.40;19.33;;;7.10;83.70;;;;;;5101380;28;20199;-82
2021/11/03 04:03:25;;;;;;;36.50;19.90;;;7.00;83.60;;;;;;5100395;28;20207;-82
2021/11/03 04:05:50;;;;;;;32.70;20.30;;;7.00;83.70;;;;;;5098549;28;20202;-82
2021/11/03 04:08:19;;;;;;;31.30;20.30;;;6.80;83.70;;;;;;5100748;28;20685;-82
2021/11/03 04:10:45;;;;;;;33.05;20.52;;;6.60;84.00;;;;;;5099455;28;20555;-82
2021/11/03 04:13:11;;;;;;;31.20;20.00;;;6.80;84.30;;;;;;5101591;28;20196;-82
2021/11/03 04:15:37;;;;;;;29.10;20.30;;;7.00;84.20;;;;;;5103626;28;20172;-81
2021/11/03 04:18:04;;;;;;;30.65;20.77;;;7.10;83.70;;;;;;5104736;28;20453;-81
2021/11/03 04:20:31;;;;;;;38.95;23.40;;;6.90;83.40;;;;;;5104604;28;20180;-82
2021/11/03 04:22:57;;;;;;;32.47;20.95;;;6.60;83.60;;;;;;5099517;28;20524;-82
2021/11/03 04:25:23;;;;;;;38.25;21.98;;;6.30;84.50;;;;;;5101895;28;20245;-82
2021/11/03 04:27:48;;;;;;;41.50;27.00;;;6.40;85.00;;;;;;5099864;28;20624;-82
2021/11/03 04:30:17;;;;;;;37.67;22.57;;;6.50;85.20;;;;;;5099998;28;20190;-81
2021/11/03 04:32:43;;;;;;;34.55;20.05;;;6.70;85.00;;;;;;5107469;28;20191;-81
2021/11/03 04:35:10;;;;;;;32.90;21.98;;;6.90;84.40;;;;;;5108889;28;20204;-80
2021/11/03 04:37:37;;;;;;;29.08;19.63;;;6.70;83.50;;;;;;5108096;28;20261;-81
2021/11/03 04:40:06;;;;;;;39.97;23.50;;;6.60;83.60;;;;;;5108845;28;20188;-80
2021/11/03 04:42:32;;;;;;;29.67;19.65;;;6.50;84.00;;;;;;5107136;28;20176;-80
2021/11/03 04:44:57;;;;;;;36.80;21.67;;;6.60;84.10;;;;;;5107804;28;20593;-82
2021/11/03 04:47:23;;;;;;;36.40;22.40;;;6.70;84.20;;;;;;5105910;28;20179;-82
2021/11/03 04:49:49;;;;;;;38.97;22.70;;;6.50;84.40;;;;;;5091339;28;20287;-81
2021/11/03 04:52:15;;;;;;;40.67;21.23;;;6.70;84.60;;;;;;5089865;28;20189;-81
2021/11/03 04:54:41;;;;;;;35.40;20.23;;;6.80;84.40;;;;;;5086146;28;20200;-82
2021/11/03 04:57:07;;;;;;;35.17;20.80;;;6.70;84.40;;;;;;5086498;28;20477;-81
2021/11/03 04:59:33;;;;;;;40.50;23.30;;;6.60;84.40;;;;;;5089743;28;20430;-81
2021/11/03 05:01:58;;;;;;;32.83;21.67;;;6.50;84.70;;;;;;5087588;28;20216;-81
2021/11/03 05:04:24;;;;;;;40.17;23.00;;;6.40;84.90;;;;;;5088743;28;20196;-81
2021/11/03 05:06:51;;;;;;;38.50;23.53;;;6.40;85.10;;;;;;5091839;28;20176;-81
2021/11/03 05:09:18;;;;;;;35.83;23.20;;;6.50;85.30;;;;;;5094293;28;20172;-80
2021/11/03 05:11:44;;;;;;;34.20;22.77;;;6.50;85.30;;;;;;5093892;28;20184;-81
2021/11/03 05:14:10;;;;;;;36.97;22.23;;;6.40;85.40;;;;;;5132566;28;20213;-80
2021/11/03 05:16:36;;;;;;;36.85;22.42;;;6.50;85.40;;;;;;5131454;28;20214;-80
2021/11/03 05:19:03;;;;;;;37.20;22.00;;;6.60;85.20;;;;;;5131053;28;20175;-80
2021/11/03 05:21:29;;;;;;;37.55;23.23;;;6.70;85.10;;;;;;5132240;28;20401;-80
2021/11/03 05:23:55;;;;;;;43.88;22.13;;;6.80;84.90;;;;;;5128499;28;20191;-80
2021/11/03 05:26:25;;;;;;;37.13;22.40;;;6.80;84.60;;;;;;5110514;28;20176;-81
2021/11/03 05:28:52;;;;;;;32.53;20.27;;;6.80;84.40;;;;;;5106770;28;20180;-80
2021/11/03 05:31:19;;;;;;;36.05;21.95;;;6.70;84.50;;;;;;5091004;28;20208;-80
2021/11/03 05:33:44;;;;;;;39.13;22.63;;;6.40;84.60;;;;;;5106185;28;20192;-81
2021/11/03 05:36:17;;;;;;;34.70;21.23;;;6.20;84.80;;;;;;5108854;28;20249;-81
2021/11/03 05:38:43;;;;;;;38.45;23.15;;;6.40;85.10;;;;;;5091549;28;20160;-81
2021/11/03 05:41:08;;;;;;;36.97;21.00;;;6.50;85.00;;;;;;5107078;28;20183;-82
2021/11/03 05:43:34;;;;;;;40.30;21.80;;;6.50;84.70;;;;;;5095182;28;20983;-82
2021/11/03 05:46:00;;;;;;;31.90;21.07;;;6.20;84.80;;;;;;5095753;28;20251;-80
2021/11/03 05:48:27;;;;;;;34.30;20.70;;;5.90;85.60;;;;;;5097216;28;20176;-82
2021/11/03 05:50:53;;;;;;;34.75;21.75;;;5.90;86.20;;;;;;5099396;28;20282;-82
2021/11/03 05:53:19;;;;;;;33.00;20.17;;;6.00;86.20;;;;;;5098102;28;20222;-82
2021/11/03 05:55:45;;;;;;;35.33;20.87;;;6.20;86.20;;;;;;5102418;28;20197;-83
2021/11/03 05:58:11;;;;;;;37.07;21.00;;;6.30;86.20;;;;;;5099766;28;20449;-82
2021/11/03 06:00:39;;;;;;;34.67;21.30;;;6.40;86.10;;;;;;5098586;28;20409;-81
2021/11/03 06:03:05;;;;;;;30.88;19.42;;;6.40;85.90;;;;;;5097720;28;20609;-81
2021/11/03 06:05:31;;;;;;;36.97;19.05;;;6.40;85.80;;;;;;5099487;28;20172;-81
2021/11/03 06:08:01;;;;;;;30.13;20.17;;;6.40;85.70;;;;;;5098835;28;20224;-80
2021/11/03 06:10:31;;;;;;;33.97;20.08;;;6.40;85.70;;;;;;5099314;28;20247;-81
2021/11/03 06:12:58;;;;;;;39.20;22.60;;;6.30;85.70;;;;;;5108533;28;20225;-81
2021/11/03 06:15:27;;;;;;;34.63;20.83;;;6.10;85.80;;;;;;5119443;28;20573;-81
2021/11/03 06:17:53;;;;;;;36.00;20.92;;;6.10;86.20;;;;;;5118918;28;20241;-81
2021/11/03 06:20:19;;;;;;;35.75;20.02;;;6.20;86.40;;;;;;5118556;28;20277;-81
2021/11/03 06:22:45;;;;;;;36.13;21.42;;;6.20;86.10;;;;;;5118472;28;20694;-81
2021/11/03 06:25:13;;;;;;;38.20;20.90;;;6.40;86.20;;;;;;5111580;28;20230;-81
2021/11/03 06:27:43;;;;;;;34.90;19.73;;;6.50;86.00;;;;;;5100524;28;20511;-81
2021/11/03 06:30:14;;;;;;;31.13;20.38;;;6.70;85.70;;;;;;5099781;28;20190;-81
2021/11/03 06:32:39;;;;;;;33.28;20.58;;;6.80;85.00;;;;;;5099034;28;20595;-81
2021/11/03 06:35:06;;;;;;;29.43;19.00;;;6.90;84.40;;;;;;5098858;28;20275;-80
2021/11/03 06:37:32;;;;;;;30.15;19.02;;;6.90;84.00;;;;;;5098750;28;20685;-81
2021/11/03 06:39:58;;;;;;;28.23;19.90;;;6.90;83.90;;;;;;5099295;28;20183;-81
2021/11/03 06:42:24;;;;;;;29.30;20.07;;;6.70;83.90;;;;;;5098238;28;20178;-81
2021/11/03 06:44:51;;;;;;;29.08;18.50;;;6.60;84.20;;;;;;5101303;28;20453;-81
2021/11/03 06:47:19;;;;;;;31.00;18.90;;;6.70;84.30;;;;;;5102089;28;20184;-81
2021/11/03 06:49:46;;;;;;;38.67;19.90;;;6.90;84.10;;;;;;5101819;28;20176;-81
2021/11/03 06:52:13;;;;;;;37.05;18.90;;;6.80;83.90;;;;;;5103029;28;20176;-81
2021/11/03 06:54:39;;;;;;;34.80;19.52;;;6.50;84.20;;;;;;5102599;28;20722;-81
2021/11/03 06:57:05;;;;;;;33.83;20.08;;;6.30;84.70;;;;;;5101999;28;20215;-81
2021/11/03 06:59:31;;;;;;;36.85;21.38;;;6.40;85.10;;;;;;5101843;28;20632;-81
2021/11/03 07:01:56;;;;;;;36.40;21.83;;;6.70;85.30;;;;;;5102177;28;20183;-81
2021/11/03 07:04:22;;;;;;;35.50;21.87;;;6.90;84.70;;;;;;5102192;28;20512;-81
2021/11/03 07:06:49;;;;;;;28.40;17.53;;;6.90;84.30;;;;;;5101034;28;20691;-81
2021/11/03 07:09:15;;;;;;;32.47;20.90;;;6.90;83.90;;;;;;5102941;28;20168;-80
2021/11/03 07:11:41;;;;;;;31.23;20.25;;;6.90;83.60;;;;;;5101864;28;20184;-80
2021/11/03 07:14:08;;;;;;;41.45;19.83;;;7.00;83.40;;;;;;5120649;28;20234;-81
2021/11/03 07:16:34;;;;;;;31.90;19.20;;;7.00;83.10;;;;;;5121693;28;20220;-80
2021/11/03 07:19:00;;;;;;;35.38;21.77;;;7.10;83.10;;;;;;5122912;28;20186;-80
2021/11/03 07:21:26;;;;;;;33.15;20.15;;;7.00;82.90;;;;;;5121542;28;20270;-80
2021/11/03 07:23:52;;;;;;;33.97;21.33;;;6.90;83.10;;;;;;5120416;28;20664;-80
2021/11/03 07:26:18;;;;;;;33.40;22.53;;;6.80;83.20;;;;;;5121097;28;20177;-81
2021/11/03 07:28:44;;;;;;;32.55;20.45;;;6.80;83.50;;;;;;5120322;28;20476;-80
2021/11/03 07:31:10;;;;;;;36.93;21.00;;;6.90;83.90;;;;;;5121130;28;20175;-80
2021/11/03 07:33:36;;;;;;;36.67;22.23;;;6.90;83.80;;;;;;5121390;28;20803;-80
2021/11/03 07:36:04;;;;;;;37.30;22.10;;;6.70;84.00;;;;;;5121531;28;20186;-80
2021/11/03 07:38:30;;;;;;;38.67;21.38;;;6.50;84.40;;;;;;5120220;28;20191;-80
2021/11/03 07:40:57;;;;;;;31.83;21.10;;;6.40;85.00;;;;;;5120908;28;20529;-80
2021/11/03 07:43:26;;;;;;;36.85;22.10;;;6.50;85.70;;;;;;5120596;28;20191;-81
2021/11/03 07:45:54;;;;;;;36.88;22.73;;;6.70;85.80;;;;;;5122361;28;20183;-80
2021/11/03 07:48:23;;;;;;;39.10;23.60;;;6.70;85.80;;;;;;5104037;28;20184;-80
2021/11/03 07:50:52;;;;;;;44.80;25.58;;;6.60;85.80;;;;;;5120982;28;20199;-81
2021/11/03 07:53:19;;;;;;;47.83;25.42;;;6.70;86.10;;;;;;5120712;28;20206;-81
2021/11/03 07:55:49;;;;;;;47.38;27.33;;;6.70;86.20;;;;;;5122081;28;20183;-81
2021/11/03 07:58:18;;;;;;;42.05;24.77;;;7.00;86.30;;;;;;5121273;28;20227;-81
2021/11/03 08:00:44;;;;;;;38.58;24.50;;;7.30;86.10;;;;;;5121789;28;20220;-81
2021/11/03 08:03:10;;;;;;;38.07;22.43;;;7.50;85.50;;;;;;5111350;28;20176;-81
2021/11/03 08:05:35;;;;;;;41.10;23.97;;;7.70;84.90;;;;;;5101115;28;20723;-81
2021/11/03 08:08:10;;;;;;;36.40;23.15;;;8.00;84.20;;;;;;5101974;28;20410;-80
2021/11/03 08:10:37;;;;;;;38.63;22.88;;;8.00;83.60;;;;;;5100448;28;20201;-81
2021/11/03 08:13:04;;;;;;;40.70;21.52;;;8.20;83.10;;;;;;5111099;28;20191;-81
2021/11/03 08:15:29;;;;;;;30.65;21.13;;;8.10;82.50;;;;;;5122462;28;20186;-81
2021/11/03 08:17:57;;;;;;;40.77;20.30;;;8.00;82.30;;;;;;5123203;28;20195;-81
2021/11/03 08:20:26;;;;;;;44.08;19.50;;;7.80;82.40;;;;;;5123984;28;20171;-81
2021/11/03 08:22:57;;;;;;;45.17;20.13;;;7.80;82.60;;;;;;5106973;28;20175;-81
2021/11/03 08:25:24;;;;;;;26.67;19.33;;;7.80;82.80;;;;;;5122668;28;20606;-81
2021/11/03 08:27:50;;;;;;;37.40;21.27;;;8.10;82.90;;;;;;5124792;28;20243;-81
2021/11/03 08:30:17;;;;;;;36.37;21.60;;;8.50;82.60;;;;;;5125398;28;20175;-81
2021/11/03 08:32:54;;;;;;;35.55;22.10;;;8.70;81.50;;;;;;5120858;28;20421;-81
2021/11/03 08:35:22;;;;;;;30.83;20.05;;;8.70;80.60;;;;;;5119184;28;20688;-81
2021/11/03 08:37:50;;;;;;;37.55;20.73;;;8.80;80.30;;;;;;5123228;28;20207;-81
2021/11/03 08:40:18;;;;;;;32.80;18.17;;;8.80;80.10;;;;;;5124395;28;20172;-81
2021/11/03 08:42:44;;;;;;;30.20;19.30;;;8.90;80.20;;;;;;5124182;28;20179;-81
2021/11/03 08:45:12;;;;;;;37.20;20.83;;;8.70;80.30;;;;;;5124068;28;20221;-81
2021/11/03 08:47:38;;;;;;;36.10;19.02;;;8.60;80.60;;;;;;5125673;28;20405;-81
2021/11/03 08:50:07;;;;;;;32.67;18.63;;;8.60;81.20;;;;;;5123011;28;20634;-81
2021/11/03 08:52:33;;;;;;;28.98;18.17;;;8.70;81.60;;;;;;5126101;28;20179;-81
2021/11/03 08:54:58;;;;;;;34.57;19.10;;;9.00;81.60;;;;;;5106675;28;20305;-81
2021/11/03 08:57:25;;;;;;;30.40;18.40;;;9.20;81.40;;;;;;5118209;28;20759;-81
2021/11/03 08:59:51;;;;;;;29.35;18.30;;;9.20;80.80;;;;;;5118303;28;20191;-81
2021/11/03 09:02:18;;;;;;;49.70;19.85;;;9.30;80.70;;;;;;5117724;28;20175;-81
2021/11/03 09:04:45;;;;;;;33.25;19.40;;;9.20;80.80;;;;;;5083129;28;20272;-81
2021/11/03 09:07:13;;;;;;;46.05;19.80;;;9.30;80.80;;;;;;5099217;28;20602;-81
2021/11/03 09:09:42;;;;;;;36.58;16.98;;;9.30;81.00;;;;;;5099687;28;20172;-81
2021/11/03 09:12:08;;;;;;;24.25;17.13;;;9.30;80.90;;;;;;5103455;28;20215;-81
2021/11/03 09:14:34;;;;;;;34.45;18.10;;;9.40;80.60;;;;;;5121387;28;20199;-81
2021/11/03 09:17:00;;;;;;;34.67;17.60;;;9.40;80.40;;;;;;5119801;28;20291;-81
2021/11/03 09:19:26;;;;;;;32.70;17.80;;;9.40;80.40;;;;;;5119626;28;20202;-81
2021/11/03 09:21:52;;;;;;;29.30;15.88;;;9.40;80.10;;;;;;5121792;28;20854;-82
2021/11/03 09:24:18;;;;;;;33.03;16.90;;;9.40;80.00;;;;;;5121515;28;20226;-81
2021/11/03 09:26:44;;;;;;;37.00;18.23;;;9.40;80.00;;;;;;5122453;28;20179;-81
2021/11/03 09:29:13;;;;;;;39.80;17.75;;;9.60;79.90;;;;;;5128671;28;20205;-81
2021/11/03 09:31:40;;;;;;;30.77;16.83;;;9.60;79.70;;;;;;5128484;28;20198;-81
2021/11/03 09:34:06;;;;;;;28.27;16.58;;;9.80;79.30;;;;;;5128585;28;20220;-81
2021/11/03 09:36:32;;;;;;;29.60;18.63;;;9.80;79.00;;;;;;5127632;28;20224;-81
2021/11/03 09:38:58;;;;;;;33.42;17.30;;;9.90;79.00;;;;;;5128289;28;20194;-80
2021/11/03 09:41:31;;;;;;;28.13;16.98;;;9.80;78.80;;;;;;5127989;28;20171;-80
2021/11/03 09:44:34;;;;;;;40.05;16.50;;;9.60;78.70;;;;;;5127838;28;20191;-81
2021/11/03 09:47:15;;;;;;;22.10;15.15;;;9.60;78.70;;;;;;5045304;28;20173;-80
2021/11/03 09:49:49;;;;;;;27.55;16.67;;;9.50;79.00;;;;;;5112752;28;20557;-80
2021/11/03 09:52:16;;;;;;;28.30;17.67;;;9.60;79.00;;;;;;5119666;28;20163;-80
2021/11/03 09:54:46;;;;;;;30.20;16.27;;;9.70;79.70;;;;;;5120365;28;20198;-80
2021/11/03 09:57:38;;;;;;;25.45;14.38;;;9.70;78.80;;;;;;5120817;28;20187;-81
2021/11/03 10:00:07;;;;;;;27.40;15.05;;;9.90;78.70;;;;;;5121183;28;20172;-81
2021/11/03 10:03:11;;;;;;;26.85;14.75;;;9.80;78.40;;;;;;5116635;28;20197;-81
2021/11/03 10:06:00;;;;;;;27.80;14.82;;;9.70;78.50;;;;;;5048240;28;20179;-81
2021/11/03 10:08:30;;;;;;;25.08;14.57;;;9.60;78.60;;;;;;5058894;28;20241;-81
2021/11/03 10:11:02;;;;;;;23.88;15.02;;;9.70;78.60;;;;;;5099271;28;20169;-81
2021/11/03 10:13:32;;;;;;;24.80;14.40;;;9.70;78.40;;;;;;5115687;28;20229;-81
2021/11/03 10:15:59;;;;;;;28.40;13.82;;;9.90;78.30;;;;;;5123713;28;20237;-81
2021/11/03 10:18:28;;;;;;;24.35;15.52;;;9.70;78.40;;;;;;5124959;28;20191;-81
2021/11/03 10:21:17;;;;;;;28.30;16.05;;;9.80;78.60;;;;;;5127164;28;20176;-81
2021/11/03 10:24:00;;;;;;;30.13;14.75;;;9.90;78.50;;;;;;5125535;28;20221;-80
2021/11/03 10:26:31;;;;;;;25.38;13.52;;;10.00;78.40;;;;;;5123176;28;20614;-81
2021/11/03 10:29:16;;;;;;;28.92;13.38;;;10.00;78.20;;;;;;5123463;28;20167;-81
2021/11/03 10:31:56;;;;;;;21.85;13.82;;;10.30;77.80;;;;;;5124326;28;20183;-81
2021/11/03 10:34:30;;;;;;;28.30;13.70;;;10.50;77.40;;;;;;5123490;28;20194;-81
2021/11/03 10:37:04;;;;;;;22.60;12.77;;;10.60;76.90;;;;;;5122574;28;20255;-81
2021/11/03 10:39:41;;;;;;;21.95;12.95;;;10.80;76.50;;;;;;5122933;28;20167;-81
2021/11/03 10:42:19;;;;;;;22.17;13.18;;;10.70;76.20;;;;;;5108979;27;20186;-81
2021/11/03 10:44:45;;;;;;;21.17;11.10;;;10.70;75.80;;;;;;5107244;28;20202;-81
2021/11/03 10:47:19;;;;;;;19.40;11.97;;;10.80;75.60;;;;;;5103546;28;20179;-81
2021/11/03 10:49:57;;;;;;;19.02;11.93;;;10.80;74.70;;;;;;5103560;28;20421;-81
2021/11/03 10:52:37;;;;;;;23.15;10.73;;;10.90;74.50;;;;;;5102743;28;20183;-81
2021/11/03 10:55:42;;;;;;;24.10;11.25;;;11.00;74.40;;;;;;5102824;28;20195;-81
2021/11/03 10:58:13;;;;;;;22.85;11.40;;;11.00;74.50;;;;;;5104134;28;20662;-81
2021/11/03 11:01:06;;;;;;;18.25;11.10;;;11.00;74.50;;;;;;5102847;28;20180;-81
2021/11/03 11:03:50;;;;;;;21.63;12.57;;;11.00;74.50;;;;;;5104089;28;20222;-81
2021/11/03 11:06:20;;;;;;;18.48;10.55;;;11.10;74.50;;;;;;5102785;28;20248;-81
2021/11/03 11:09:01;;;;;;;17.33;10.27;;;11.00;74.40;;;;;;5102639;28;20175;-81
2021/11/03 11:11:30;;;;;;;19.10;10.00;;;11.00;74.50;;;;;;5111247;28;20164;-81
2021/11/03 11:14:06;;;;;;;19.60;11.32;;;11.10;74.80;;;;;;5136096;28;20317;-81
2021/11/03 11:16:54;;;;;;;19.52;11.00;;;11.30;74.80;;;;;;5139049;28;20178;-81
2021/11/03 11:19:51;;;;;;;16.95;9.60;;;11.30;74.30;;;;;;5139261;28;20217;-81
2021/11/03 11:22:26;;;;;;;27.27;11.45;;;11.20;73.70;;;;;;5137943;28;20190;-80
2021/11/03 11:25:11;;;;;;;22.05;11.82;;;11.20;74.00;;;;;;5137028;28;20179;-81
2021/11/03 11:27:52;;;;;;;21.52;11.50;;;11.30;74.10;;;;;;5136522;27;20147;-81
2021/11/03 11:30:23;;;;;;;24.52;12.65;;;11.40;73.70;;;;;;5132317;28;20174;-81
2021/11/03 11:32:58;;;;;;;20.17;12.88;;;11.40;73.70;;;;;;5132257;28;20204;-81
2021/11/03 11:35:48;;;;;;;19.33;12.20;;;11.30;74.20;;;;;;5132682;28;20224;-81
2021/11/03 11:38:17;;;;;;;18.63;11.77;;;10.80;75.40;;;;;;5129473;28;20246;-81
2021/11/03 11:40:54;;;;;;;25.48;11.52;;;11.00;75.90;;;;;;5116759;28;20179;-81
2021/11/03 11:44:01;;;;;;;23.20;12.40;;;11.40;75.80;;;;;;5106017;28;20144;-81
2021/11/03 11:46:30;;;;;;;24.50;14.57;;;11.50;75.20;;;;;;5047238;28;20175;-81
2021/11/03 11:49:02;;;;;;;28.10;13.85;;;11.60;75.00;;;;;;5100412;28;20602;-81
2021/11/03 11:51:34;;;;;;;20.95;11.77;;;11.90;74.80;;;;;;5098497;28;20167;-81
2021/11/03 11:54:01;;;;;;;20.73;10.27;;;11.80;74.10;;;;;;5098300;28;20581;-81
2021/11/03 11:56:33;;;;;;;22.63;12.90;;;11.90;73.90;;;;;;5102431;28;20202;-81
2021/11/03 11:59:08;;;;;;;24.02;11.80;;;12.10;73.80;;;;;;5103286;28;20317;-81
2021/11/03 12:01:40;;;;;;;16.73;9.38;;;12.00;73.20;;;;;;5104095;28;20162;-81
2021/11/03 12:04:30;;;;;;;12.63;8.80;;;12.00;72.90;;;;;;5101988;28;20192;-81
2021/11/03 12:06:55;;;;;;;22.27;10.23;;;11.70;73.30;;;;;;5091092;28;20217;-81
2021/11/03 12:09:31;;;;;;;16.87;10.93;;;11.40;73.90;;;;;;5100893;28;20168;-81
2021/11/03 12:12:00;;;;;;;18.67;9.65;;;11.60;74.40;;;;;;5097716;28;20187;-81
2021/11/03 12:14:51;;;;;;;9.98;7.63;;;11.80;74.10;;;;;;5095473;28;20578;-81
2021/11/03 12:17:51;;;;;;;13.32;8.75;;;12.00;73.10;;;;;;5097714;28;20219;-81
2021/11/03 12:20:26;;;;;;;19.40;9.55;;;12.00;72.10;;;;;;5102524;28;20229;-81
2021/11/03 12:23:01;;;;;;;19.17;9.68;;;12.20;71.70;;;;;;5104925;28;20183;-81
2021/11/03 12:25:30;;;;;;;12.73;7.28;;;12.20;71.60;;;;;;5106516;28;20172;-81
2021/11/03 12:28:11;;;;;;;12.00;6.72;;;11.80;70.10;;;;;;5107312;28;20168;-81
2021/11/03 12:30:38;;;;;;;13.23;7.00;;;11.50;70.80;;;;;;5108396;28;20207;-81
2021/11/03 12:33:14;;;;;;;11.48;6.63;;;11.70;70.60;;;;;;5107617;28;20180;-81
2021/11/03 12:35:40;;;;;;;14.88;7.97;;;11.50;70.70;;;;;;5099424;28;20187;-81
2021/11/03 12:38:11;;;;;;;7.60;6.80;;;11.30;71.80;;;;;;5114875;28;20219;-81
2021/11/03 12:40:37;;;;;;;8.55;7.03;;;11.20;71.80;;;;;;5113665;28;20163;-82
2021/11/03 12:43:14;;;;;;;9.00;6.80;;;11.10;72.20;;;;;;5108332;28;20172;-82
2021/11/03 12:46:09;;;;;;;20.85;8.05;;;11.20;72.30;;;;;;5108310;28;20175;-82
2021/11/03 12:48:56;;;;;;;16.42;7.93;;;11.60;71.80;;;;;;5089467;28;20180;-82